sensor_id;sensor_type;location;lat;lon;timestamp;temperature;humidity
3542;DHT22;1785;47.388;8.538;2023-05-16T00:01:06;14.50;99.90
3542;DHT22;1785;47.388;8.538;2023-05-16T00:03:33;14.20;99.90
3542;DHT22;1785;47.388;8.538;2023-05-16T00:06:01;13.80;99.90
3542;DHT22;1785;47.388;8.538;2023-05-16T00:08:27;13.60;99.90
3542;DHT22;1785;47.388;8.538;2023-05-16T00:10:54;13.50;99.90
3542;DHT22;1785;47.388;8.538;2023-05-16T00:13:20;13.40;99.90
3542;DHT22;1785;47.388;8.538;2023-05-16T00:15:49;13.50;99.90
3542;DHT22;1785;47.388;8.538;2023-05-16T00:18:17;13.90;99.90
3542;DHT22;1785;47.388;8.538;2023-05-16T00:20:44;14.20;99.90
3542;DHT22;1785;47.388;8.538;2023-05-16T00:23:10;14.50;99.90
3542;DHT22;1785;47.388;8.538;2023-05-16T00:25:38;14.30;99.90
3542;DHT22;1785;47.388;8.538;2023-05-16T00:28:05;14.30;99.90
3542;DHT22;1785;47.388;8.538;2023-05-16T00:30:31;14.30;99.90
3542;DHT22;1785;47.388;8.538;2023-05-16T00:32:58;14.10;99.90
3542;DHT22;1785;47.388;8.538;2023-05-16T00:35:25;13.90;99.90
3542;DHT22;1785;47.388;8.538;2023-05-16T00:37:51;13.70;99.90
3542;DHT22;1785;47.388;8.538;2023-05-16T00:40:17;13.70;99.90
3542;DHT22;1785;47.388;8.538;2023-05-16T00:42:44;13.80;99.90
3542;DHT22;1785;47.388;8.538;2023-05-16T00:45:10;13.90;99.90
3542;DHT22;1785;47.388;8.538;2023-05-16T00:47:36;13.70;99.90
3542;DHT22;1785;47.388;8.538;2023-05-16T00:50:03;13.70;99.90
3542;DHT22;1785;47.388;8.538;2023-05-16T00:52:30;13.50;99.90
3542;DHT22;1785;47.388;8.538;2023-05-16T00:54:58;13.50;99.90
3542;DHT22;1785;47.388;8.538;2023-05-16T00:57:24;13.50;99.90
3542;DHT22;1785;47.388;8.538;2023-05-16T00:59:51;13.50;99.90
3542;DHT22;1785;47.388;8.538;2023-05-16T01:02:17;13.40;99.90
3542;DHT22;1785;47.388;8.538;2023-05-16T01:04:45;13.30;99.90
3542;DHT22;1785;47.388;8.538;2023-05-16T01:07:13;13.50;99.90
3542;DHT22;1785;47.388;8.538;2023-05-16T01:09:39;13.70;99.90
3542;DHT22;1785;47.388;8.538;2023-05-16T01:12:10;13.80;99.90
3542;DHT22;1785;47.388;8.538;2023-05-16T01:14:45;13.70;99.90
3542;DHT22;1785;47.388;8.538;2023-05-16T01:17:20;13.80;99.90
3542;DHT22;1785;47.388;8.538;2023-05-16T01:19:59;14.00;99.90
3542;DHT22;1785;47.388;8.538;2023-05-16T01:22:45;14.00;99.90
3542;DHT22;1785;47.388;8.538;2023-05-16T01:25:21;13.80;99.90
3542;DHT22;1785;47.388;8.538;2023-05-16T01:27:52;13.60;99.90
3542;DHT22;1785;47.388;8.538;2023-05-16T01:30:19;13.60;99.90
3542;DHT22;1785;47.388;8.538;2023-05-16T01:32:45;13.50;99.90
3542;DHT22;1785;47.388;8.538;2023-05-16T01:35:14;13.50;99.90
3542;DHT22;1785;47.388;8.538;2023-05-16T01:37:44;13.50;99.90
3542;DHT22;1785;47.388;8.538;2023-05-16T01:40:16;13.40;99.90
3542;DHT22;1785;47.388;8.538;2023-05-16T01:42:49;13.60;99.90
3542;DHT22;1785;47.388;8.538;2023-05-16T01:45:21;13.50;99.90
3542;DHT22;1785;47.388;8.538;2023-05-16T01:47:51;13.50;99.90
3542;DHT22;1785;47.388;8.538;2023-05-16T01:50:24;13.60;99.90
3542;DHT22;1785;47.388;8.538;2023-05-16T01:52:58;13.70;99.90
3542;DHT22;1785;47.388;8.538;2023-05-16T01:55:31;13.90;99.90
3542;DHT22;1785;47.388;8.538;2023-05-16T01:58:01;13.90;99.90
3542;DHT22;1785;47.388;8.538;2023-05-16T02:00:29;13.80;99.90
3542;DHT22;1785;47.388;8.538;2023-05-16T02:02:56;13.80;99.90
3542;DHT22;1785;47.388;8.538;2023-05-16T02:05:22;13.90;99.90
3542;DHT22;1785;47.388;8.538;2023-05-16T02:07:48;14.00;99.90
3542;DHT22;1785;47.388;8.538;2023-05-16T02:10:14;14.10;99.90
3542;DHT22;1785;47.388;8.538;2023-05-16T02:12:40;14.20;99.90
3542;DHT22;1785;47.388;8.538;2023-05-16T02:15:07;14.20;99.90
3542;DHT22;1785;47.388;8.538;2023-05-16T02:17:35;14.50;99.90
3542;DHT22;1785;47.388;8.538;2023-05-16T02:20:01;14.60;99.90
3542;DHT22;1785;47.388;8.538;2023-05-16T02:22:31;14.80;99.90
3542;DHT22;1785;47.388;8.538;2023-05-16T02:24:57;14.90;99.90
3542;DHT22;1785;47.388;8.538;2023-05-16T02:27:23;14.80;99.90
3542;DHT22;1785;47.388;8.538;2023-05-16T02:29:49;14.80;99.90
3542;DHT22;1785;47.388;8.538;2023-05-16T02:32:15;14.90;99.90
3542;DHT22;1785;47.388;8.538;2023-05-16T02:34:43;15.00;99.90
3542;DHT22;1785;47.388;8.538;2023-05-16T02:37:09;15.00;99.90
3542;DHT22;1785;47.388;8.538;2023-05-16T02:39:35;14.70;99.90
3542;DHT22;1785;47.388;8.538;2023-05-16T02:42:02;14.60;99.90
3542;DHT22;1785;47.388;8.538;2023-05-16T02:44:29;14.60;99.90
3542;DHT22;1785;47.388;8.538;2023-05-16T02:46:55;14.70;99.90
3542;DHT22;1785;47.388;8.538;2023-05-16T02:49:21;14.70;99.90
3542;DHT22;1785;47.388;8.538;2023-05-16T02:51:48;14.80;99.90
3542;DHT22;1785;47.388;8.538;2023-05-16T02:54:15;14.60;99.90
3542;DHT22;1785;47.388;8.538;2023-05-16T02:56:41;14.40;99.90
3542;DHT22;1785;47.388;8.538;2023-05-16T02:59:07;14.10;99.90
3542;DHT22;1785;47.388;8.538;2023-05-16T03:01:33;14.10;99.90
3542;DHT22;1785;47.388;8.538;2023-05-16T03:04:00;13.90;99.90
3542;DHT22;1785;47.388;8.538;2023-05-16T03:06:26;13.70;99.90
3542;DHT22;1785;47.388;8.538;2023-05-16T03:08:53;13.90;99.90
3542;DHT22;1785;47.388;8.538;2023-05-16T03:11:20;13.70;99.90
3542;DHT22;1785;47.388;8.538;2023-05-16T03:13:47;13.90;99.90
3542;DHT22;1785;47.388;8.538;2023-05-16T03:16:13;14.20;99.90
3542;DHT22;1785;47.388;8.538;2023-05-16T03:18:41;14.40;99.90
3542;DHT22;1785;47.388;8.538;2023-05-16T03:21:07;14.40;99.90
3542;DHT22;1785;47.388;8.538;2023-05-16T03:23:33;14.00;99.90
3542;DHT22;1785;47.388;8.538;2023-05-16T03:26:00;14.00;99.90
3542;DHT22;1785;47.388;8.538;2023-05-16T03:28:26;14.00;99.90
3542;DHT22;1785;47.388;8.538;2023-05-16T03:30:52;13.80;99.90
3542;DHT22;1785;47.388;8.538;2023-05-16T03:33:18;13.40;99.90
3542;DHT22;1785;47.388;8.538;2023-05-16T03:35:45;13.10;99.90
3542;DHT22;1785;47.388;8.538;2023-05-16T03:38:11;12.90;99.90
3542;DHT22;1785;47.388;8.538;2023-05-16T03:40:38;13.00;99.90
3542;DHT22;1785;47.388;8.538;2023-05-16T03:43:05;12.90;99.90
3542;DHT22;1785;47.388;8.538;2023-05-16T03:45:31;13.00;99.90
3542;DHT22;1785;47.388;8.538;2023-05-16T03:47:57;13.20;99.90
3542;DHT22;1785;47.388;8.538;2023-05-16T03:50:23;13.40;99.90
3542;DHT22;1785;47.388;8.538;2023-05-16T03:52:50;13.70;99.90
3542;DHT22;1785;47.388;8.538;2023-05-16T03:55:18;13.70;99.90
3542;DHT22;1785;47.388;8.538;2023-05-16T03:57:44;13.60;99.90
3542;DHT22;1785;47.388;8.538;2023-05-16T04:00:12;13.50;99.90
3542;DHT22;1785;47.388;8.538;2023-05-16T04:02:39;13.30;99.90
3542;DHT22;1785;47.388;8.538;2023-05-16T04:05:06;13.20;99.90
3542;DHT22;1785;47.388;8.538;2023-05-16T04:07:33;13.10;99.90
3542;DHT22;1785;47.388;8.538;2023-05-16T04:09:59;13.40;99.90
3542;DHT22;1785;47.388;8.538;2023-05-16T04:12:25;13.50;99.90
3542;DHT22;1785;47.388;8.538;2023-05-16T04:14:51;13.50;99.90
3542;DHT22;1785;47.388;8.538;2023-05-16T04:17:18;13.40;99.90
3542;DHT22;1785;47.388;8.538;2023-05-16T04:19:44;13.30;99.90
3542;DHT22;1785;47.388;8.538;2023-05-16T04:22:11;13.60;99.90
3542;DHT22;1785;47.388;8.538;2023-05-16T04:24:37;13.90;99.90
3542;DHT22;1785;47.388;8.538;2023-05-16T04:27:04;13.80;99.90
3542;DHT22;1785;47.388;8.538;2023-05-16T04:29:33;13.60;99.90
3542;DHT22;1785;47.388;8.538;2023-05-16T04:31:59;13.70;99.90
3542;DHT22;1785;47.388;8.538;2023-05-16T04:34:27;13.70;99.90
3542;DHT22;1785;47.388;8.538;2023-05-16T04:36:53;13.80;99.90
3542;DHT22;1785;47.388;8.538;2023-05-16T04:39:19;13.70;99.90
3542;DHT22;1785;47.388;8.538;2023-05-16T04:41:46;13.80;99.90
3542;DHT22;1785;47.388;8.538;2023-05-16T04:44:12;13.80;99.90
3542;DHT22;1785;47.388;8.538;2023-05-16T04:46:38;13.50;99.90
3542;DHT22;1785;47.388;8.538;2023-05-16T04:49:05;13.60;99.90
3542;DHT22;1785;47.388;8.538;2023-05-16T04:51:32;13.30;99.90
3542;DHT22;1785;47.388;8.538;2023-05-16T04:53:59;13.20;99.90
3542;DHT22;1785;47.388;8.538;2023-05-16T04:56:26;13.30;99.90
3542;DHT22;1785;47.388;8.538;2023-05-16T04:58:52;12.90;99.90
3542;DHT22;1785;47.388;8.538;2023-05-16T05:01:19;13.00;99.90
3542;DHT22;1785;47.388;8.538;2023-05-16T05:03:46;12.90;99.90
3542;DHT22;1785;47.388;8.538;2023-05-16T05:06:12;12.90;99.90
3542;DHT22;1785;47.388;8.538;2023-05-16T05:08:40;12.90;99.90
3542;DHT22;1785;47.388;8.538;2023-05-16T05:11:06;12.90;99.90
3542;DHT22;1785;47.388;8.538;2023-05-16T05:13:32;12.90;99.90
3542;DHT22;1785;47.388;8.538;2023-05-16T05:15:58;13.00;99.90
3542;DHT22;1785;47.388;8.538;2023-05-16T05:18:26;12.90;99.90
3542;DHT22;1785;47.388;8.538;2023-05-16T05:20:52;12.90;99.90
3542;DHT22;1785;47.388;8.538;2023-05-16T05:23:18;13.00;99.90
3542;DHT22;1785;47.388;8.538;2023-05-16T05:25:46;13.10;99.90
3542;DHT22;1785;47.388;8.538;2023-05-16T05:28:12;13.20;99.90
3542;DHT22;1785;47.388;8.538;2023-05-16T05:30:38;13.00;99.90
3542;DHT22;1785;47.388;8.538;2023-05-16T05:33:04;13.00;99.90
3542;DHT22;1785;47.388;8.538;2023-05-16T05:35:30;13.10;99.90
3542;DHT22;1785;47.388;8.538;2023-05-16T05:37:57;13.10;99.90
3542;DHT22;1785;47.388;8.538;2023-05-16T05:40:23;13.00;99.90
3542;DHT22;1785;47.388;8.538;2023-05-16T05:42:50;13.00;99.90
3542;DHT22;1785;47.388;8.538;2023-05-16T05:45:16;12.80;99.90
3542;DHT22;1785;47.388;8.538;2023-05-16T05:47:43;12.80;99.90
3542;DHT22;1785;47.388;8.538;2023-05-16T05:50:10;13.00;99.90
3542;DHT22;1785;47.388;8.538;2023-05-16T05:52:36;13.30;99.90
3542;DHT22;1785;47.388;8.538;2023-05-16T05:55:03;13.50;99.90
3542;DHT22;1785;47.388;8.538;2023-05-16T05:57:29;13.30;99.90
3542;DHT22;1785;47.388;8.538;2023-05-16T05:59:56;13.20;99.90
3542;DHT22;1785;47.388;8.538;2023-05-16T06:02:22;13.20;99.90
3542;DHT22;1785;47.388;8.538;2023-05-16T06:04:48;13.50;99.90
3542;DHT22;1785;47.388;8.538;2023-05-16T06:07:15;13.70;99.90
3542;DHT22;1785;47.388;8.538;2023-05-16T06:09:41;13.40;99.90
3542;DHT22;1785;47.388;8.538;2023-05-16T06:12:08;13.40;99.90
3542;DHT22;1785;47.388;8.538;2023-05-16T06:14:34;13.50;99.90
3542;DHT22;1785;47.388;8.538;2023-05-16T06:17:01;13.30;99.90
3542;DHT22;1785;47.388;8.538;2023-05-16T06:19:27;13.70;99.90
3542;DHT22;1785;47.388;8.538;2023-05-16T06:21:53;13.40;99.90
3542;DHT22;1785;47.388;8.538;2023-05-16T06:24:20;13.40;99.90
3542;DHT22;1785;47.388;8.538;2023-05-16T06:26:46;13.60;99.90
3542;DHT22;1785;47.388;8.538;2023-05-16T06:29:14;13.30;99.90
3542;DHT22;1785;47.388;8.538;2023-05-16T06:31:40;13.70;99.90
3542;DHT22;1785;47.388;8.538;2023-05-16T06:34:08;13.80;99.90
3542;DHT22;1785;47.388;8.538;2023-05-16T06:36:34;13.70;99.90
3542;DHT22;1785;47.388;8.538;2023-05-16T06:39:00;13.70;99.90
3542;DHT22;1785;47.388;8.538;2023-05-16T06:41:26;13.40;99.90
3542;DHT22;1785;47.388;8.538;2023-05-16T06:43:52;13.30;99.90
3542;DHT22;1785;47.388;8.538;2023-05-16T06:46:18;13.10;99.90
3542;DHT22;1785;47.388;8.538;2023-05-16T06:48:44;13.20;99.90
3542;DHT22;1785;47.388;8.538;2023-05-16T06:51:11;13.30;99.90
3542;DHT22;1785;47.388;8.538;2023-05-16T06:53:37;13.30;99.90
3542;DHT22;1785;47.388;8.538;2023-05-16T06:56:04;13.40;99.90
3542;DHT22;1785;47.388;8.538;2023-05-16T06:58:30;13.30;99.90
3542;DHT22;1785;47.388;8.538;2023-05-16T07:00:56;13.60;99.90
3542;DHT22;1785;47.388;8.538;2023-05-16T07:03:22;13.60;99.90
3542;DHT22;1785;47.388;8.538;2023-05-16T07:05:48;13.90;99.90
3542;DHT22;1785;47.388;8.538;2023-05-16T07:08:18;13.60;99.90
3542;DHT22;1785;47.388;8.538;2023-05-16T07:10:44;13.60;99.90
3542;DHT22;1785;47.388;8.538;2023-05-16T07:13:10;13.50;99.90
3542;DHT22;1785;47.388;8.538;2023-05-16T07:15:36;13.40;99.90
3542;DHT22;1785;47.388;8.538;2023-05-16T07:18:06;13.40;99.90
3542;DHT22;1785;47.388;8.538;2023-05-16T07:20:32;13.30;99.90
3542;DHT22;1785;47.388;8.538;2023-05-16T07:22:58;13.60;99.90
3542;DHT22;1785;47.388;8.538;2023-05-16T07:25:25;13.90;99.90
3542;DHT22;1785;47.388;8.538;2023-05-16T07:27:52;14.30;99.90
3542;DHT22;1785;47.388;8.538;2023-05-16T07:30:18;14.10;99.90
3542;DHT22;1785;47.388;8.538;2023-05-16T07:32:45;14.10;99.90
3542;DHT22;1785;47.388;8.538;2023-05-16T07:35:11;14.10;99.90
3542;DHT22;1785;47.388;8.538;2023-05-16T07:37:38;14.20;99.90
3542;DHT22;1785;47.388;8.538;2023-05-16T07:40:08;14.30;99.90
3542;DHT22;1785;47.388;8.538;2023-05-16T07:42:35;14.50;99.90
3542;DHT22;1785;47.388;8.538;2023-05-16T07:45:02;14.30;99.90
3542;DHT22;1785;47.388;8.538;2023-05-16T07:47:28;14.10;99.90
3542;DHT22;1785;47.388;8.538;2023-05-16T07:49:54;14.20;99.90
3542;DHT22;1785;47.388;8.538;2023-05-16T07:52:22;14.40;99.90
3542;DHT22;1785;47.388;8.538;2023-05-16T07:54:48;14.50;99.90
3542;DHT22;1785;47.388;8.538;2023-05-16T07:57:14;14.60;99.90
3542;DHT22;1785;47.388;8.538;2023-05-16T07:59:41;14.30;99.90
3542;DHT22;1785;47.388;8.538;2023-05-16T08:02:07;14.20;99.90
3542;DHT22;1785;47.388;8.538;2023-05-16T08:04:33;14.50;99.90
3542;DHT22;1785;47.388;8.538;2023-05-16T08:06:59;14.30;99.90
3542;DHT22;1785;47.388;8.538;2023-05-16T08:09:25;14.30;99.90
3542;DHT22;1785;47.388;8.538;2023-05-16T08:11:51;14.30;99.90
3542;DHT22;1785;47.388;8.538;2023-05-16T08:14:17;14.40;99.90
3542;DHT22;1785;47.388;8.538;2023-05-16T08:16:44;14.60;99.90
3542;DHT22;1785;47.388;8.538;2023-05-16T08:19:10;14.80;99.90
3542;DHT22;1785;47.388;8.538;2023-05-16T08:21:37;14.90;99.90
3542;DHT22;1785;47.388;8.538;2023-05-16T08:24:03;15.00;99.90
3542;DHT22;1785;47.388;8.538;2023-05-16T08:26:31;15.30;99.90
3542;DHT22;1785;47.388;8.538;2023-05-16T08:28:57;15.10;99.90
3542;DHT22;1785;47.388;8.538;2023-05-16T08:31:23;15.20;99.90
3542;DHT22;1785;47.388;8.538;2023-05-16T08:33:50;15.20;99.90
3542;DHT22;1785;47.388;8.538;2023-05-16T08:36:16;15.10;99.90
3542;DHT22;1785;47.388;8.538;2023-05-16T08:38:44;15.00;99.90
3542;DHT22;1785;47.388;8.538;2023-05-16T08:41:10;14.80;99.90
3542;DHT22;1785;47.388;8.538;2023-05-16T08:43:36;14.90;99.90
3542;DHT22;1785;47.388;8.538;2023-05-16T08:46:03;15.10;99.90
3542;DHT22;1785;47.388;8.538;2023-05-16T08:48:31;15.20;99.90
3542;DHT22;1785;47.388;8.538;2023-05-16T08:50:59;15.40;99.90
3542;DHT22;1785;47.388;8.538;2023-05-16T08:53:34;15.30;99.90
3542;DHT22;1785;47.388;8.538;2023-05-16T08:56:03;15.20;99.90
3542;DHT22;1785;47.388;8.538;2023-05-16T08:58:29;15.20;99.90
3542;DHT22;1785;47.388;8.538;2023-05-16T09:00:56;15.30;99.90
3542;DHT22;1785;47.388;8.538;2023-05-16T09:03:23;15.20;99.90
3542;DHT22;1785;47.388;8.538;2023-05-16T09:05:49;15.20;99.90
3542;DHT22;1785;47.388;8.538;2023-05-16T09:08:17;15.30;99.90
3542;DHT22;1785;47.388;8.538;2023-05-16T09:10:44;15.40;99.90
3542;DHT22;1785;47.388;8.538;2023-05-16T09:13:11;15.50;99.90
3542;DHT22;1785;47.388;8.538;2023-05-16T09:15:37;15.30;99.90
3542;DHT22;1785;47.388;8.538;2023-05-16T09:18:03;15.30;99.90
3542;DHT22;1785;47.388;8.538;2023-05-16T09:20:30;15.20;99.90
3542;DHT22;1785;47.388;8.538;2023-05-16T09:22:58;15.30;99.90
3542;DHT22;1785;47.388;8.538;2023-05-16T09:25:27;15.20;99.90
3542;DHT22;1785;47.388;8.538;2023-05-16T09:27:54;15.00;99.90
3542;DHT22;1785;47.388;8.538;2023-05-16T09:30:21;14.90;99.90
3542;DHT22;1785;47.388;8.538;2023-05-16T09:32:50;14.60;99.90
3542;DHT22;1785;47.388;8.538;2023-05-16T09:35:18;14.50;99.90
3542;DHT22;1785;47.388;8.538;2023-05-16T09:37:45;14.50;99.90
3542;DHT22;1785;47.388;8.538;2023-05-16T09:40:12;14.60;99.90
3542;DHT22;1785;47.388;8.538;2023-05-16T09:42:39;14.90;99.90
3542;DHT22;1785;47.388;8.538;2023-05-16T09:45:06;15.10;99.90
3542;DHT22;1785;47.388;8.538;2023-05-16T09:47:32;15.20;99.90
3542;DHT22;1785;47.388;8.538;2023-05-16T09:49:59;15.20;99.90
3542;DHT22;1785;47.388;8.538;2023-05-16T09:52:26;14.80;99.90
3542;DHT22;1785;47.388;8.538;2023-05-16T09:54:53;14.60;99.90
3542;DHT22;1785;47.388;8.538;2023-05-16T09:57:19;14.20;99.90
3542;DHT22;1785;47.388;8.538;2023-05-16T09:59:46;14.20;99.90
3542;DHT22;1785;47.388;8.538;2023-05-16T10:02:13;14.20;99.90
3542;DHT22;1785;47.388;8.538;2023-05-16T10:04:39;13.90;99.90
3542;DHT22;1785;47.388;8.538;2023-05-16T10:07:07;14.00;99.90
3542;DHT22;1785;47.388;8.538;2023-05-16T10:09:35;14.10;99.90
3542;DHT22;1785;47.388;8.538;2023-05-16T10:12:03;14.20;99.90
3542;DHT22;1785;47.388;8.538;2023-05-16T10:14:33;14.30;99.90
3542;DHT22;1785;47.388;8.538;2023-05-16T10:17:02;14.30;99.90
3542;DHT22;1785;47.388;8.538;2023-05-16T10:19:31;14.50;99.90
3542;DHT22;1785;47.388;8.538;2023-05-16T10:22:04;14.70;99.90
3542;DHT22;1785;47.388;8.538;2023-05-16T10:24:36;14.90;99.90
3542;DHT22;1785;47.388;8.538;2023-05-16T10:27:04;15.10;99.90
3542;DHT22;1785;47.388;8.538;2023-05-16T10:29:31;15.20;99.90
3542;DHT22;1785;47.388;8.538;2023-05-16T10:31:58;15.40;99.90
3542;DHT22;1785;47.388;8.538;2023-05-16T10:34:25;15.50;99.90
3542;DHT22;1785;47.388;8.538;2023-05-16T10:36:52;15.60;99.90
3542;DHT22;1785;47.388;8.538;2023-05-16T10:39:19;15.70;99.90
3542;DHT22;1785;47.388;8.538;2023-05-16T10:41:46;15.60;99.90
3542;DHT22;1785;47.388;8.538;2023-05-16T10:44:14;15.60;99.90
3542;DHT22;1785;47.388;8.538;2023-05-16T10:46:42;15.60;99.90
3542;DHT22;1785;47.388;8.538;2023-05-16T10:49:21;15.60;99.90
3542;DHT22;1785;47.388;8.538;2023-05-16T10:52:03;15.60;99.90
3542;DHT22;1785;47.388;8.538;2023-05-16T10:54:36;15.40;99.90
3542;DHT22;1785;47.388;8.538;2023-05-16T10:57:05;15.30;99.90
3542;DHT22;1785;47.388;8.538;2023-05-16T10:59:40;15.20;99.90
3542;DHT22;1785;47.388;8.538;2023-05-16T11:02:24;15.30;99.90
3542;DHT22;1785;47.388;8.538;2023-05-16T11:04:51;15.30;99.90
3542;DHT22;1785;47.388;8.538;2023-05-16T11:07:22;15.30;99.90
3542;DHT22;1785;47.388;8.538;2023-05-16T11:10:03;15.30;99.90
3542;DHT22;1785;47.388;8.538;2023-05-16T11:12:43;15.10;99.90
3542;DHT22;1785;47.388;8.538;2023-05-16T11:15:25;15.00;99.90
3542;DHT22;1785;47.388;8.538;2023-05-16T11:18:05;15.00;99.90
3542;DHT22;1785;47.388;8.538;2023-05-16T11:20:33;15.10;99.90
3542;DHT22;1785;47.388;8.538;2023-05-16T11:23:20;15.00;99.90
3542;DHT22;1785;47.388;8.538;2023-05-16T11:25:53;15.10;99.90
3542;DHT22;1785;47.388;8.538;2023-05-16T11:28:21;15.20;99.90
3542;DHT22;1785;47.388;8.538;2023-05-16T11:30:50;15.20;99.90
3542;DHT22;1785;47.388;8.538;2023-05-16T11:33:17;15.20;99.90
3542;DHT22;1785;47.388;8.538;2023-05-16T11:35:45;15.10;99.90
3542;DHT22;1785;47.388;8.538;2023-05-16T11:38:25;15.10;99.90
3542;DHT22;1785;47.388;8.538;2023-05-16T11:40:52;15.00;99.90
3542;DHT22;1785;47.388;8.538;2023-05-16T11:43:19;14.90;99.90
3542;DHT22;1785;47.388;8.538;2023-05-16T11:45:45;15.00;99.90
3542;DHT22;1785;47.388;8.538;2023-05-16T11:48:11;14.70;99.90
3542;DHT22;1785;47.388;8.538;2023-05-16T11:50:38;14.50;99.90
3542;DHT22;1785;47.388;8.538;2023-05-16T11:53:04;14.30;99.90
3542;DHT22;1785;47.388;8.538;2023-05-16T11:55:31;14.00;99.90
3542;DHT22;1785;47.388;8.538;2023-05-16T11:57:59;13.70;99.90
3542;DHT22;1785;47.388;8.538;2023-05-16T12:00:26;13.60;99.90
3542;DHT22;1785;47.388;8.538;2023-05-16T12:02:53;14.10;99.90
3542;DHT22;1785;47.388;8.538;2023-05-16T12:05:21;14.40;99.90
3542;DHT22;1785;47.388;8.538;2023-05-16T12:07:50;14.60;99.90
3542;DHT22;1785;47.388;8.538;2023-05-16T12:10:18;14.80;99.90
3542;DHT22;1785;47.388;8.538;2023-05-16T12:12:47;14.80;99.90
3542;DHT22;1785;47.388;8.538;2023-05-16T12:15:14;14.80;99.90
3542;DHT22;1785;47.388;8.538;2023-05-16T12:17:40;14.80;99.90
3542;DHT22;1785;47.388;8.538;2023-05-16T12:20:09;14.80;99.90
3542;DHT22;1785;47.388;8.538;2023-05-16T12:22:38;14.80;99.90
3542;DHT22;1785;47.388;8.538;2023-05-16T12:25:21;14.90;99.90
3542;DHT22;1785;47.388;8.538;2023-05-16T12:27:48;15.00;99.90
3542;DHT22;1785;47.388;8.538;2023-05-16T12:30:16;15.00;99.90
3542;DHT22;1785;47.388;8.538;2023-05-16T12:32:42;14.80;99.90
3542;DHT22;1785;47.388;8.538;2023-05-16T12:35:10;14.60;99.90
3542;DHT22;1785;47.388;8.538;2023-05-16T12:37:37;14.60;99.90
3542;DHT22;1785;47.388;8.538;2023-05-16T12:40:04;14.20;99.90
3542;DHT22;1785;47.388;8.538;2023-05-16T12:42:31;13.80;99.90
3542;DHT22;1785;47.388;8.538;2023-05-16T12:44:58;13.70;99.90
3542;DHT22;1785;47.388;8.538;2023-05-16T12:47:34;13.80;99.90
3542;DHT22;1785;47.388;8.538;2023-05-16T12:50:01;14.10;99.90
3542;DHT22;1785;47.388;8.538;2023-05-16T12:52:28;14.30;99.90
3542;DHT22;1785;47.388;8.538;2023-05-16T12:54:54;14.50;99.90
3542;DHT22;1785;47.388;8.538;2023-05-16T12:57:20;14.40;99.90
3542;DHT22;1785;47.388;8.538;2023-05-16T12:59:46;14.30;99.90
3542;DHT22;1785;47.388;8.538;2023-05-16T13:02:14;14.60;99.90
3542;DHT22;1785;47.388;8.538;2023-05-16T13:04:41;14.70;99.90
3542;DHT22;1785;47.388;8.538;2023-05-16T13:07:07;14.60;99.90
3542;DHT22;1785;47.388;8.538;2023-05-16T13:09:33;14.50;99.90
3542;DHT22;1785;47.388;8.538;2023-05-16T13:11:59;14.30;99.90
3542;DHT22;1785;47.388;8.538;2023-05-16T13:14:25;14.40;99.90
3542;DHT22;1785;47.388;8.538;2023-05-16T13:16:51;14.40;99.90
3542;DHT22;1785;47.388;8.538;2023-05-16T13:19:18;14.60;99.90
3542;DHT22;1785;47.388;8.538;2023-05-16T13:21:44;14.60;99.90
3542;DHT22;1785;47.388;8.538;2023-05-16T13:24:10;14.70;99.90
3542;DHT22;1785;47.388;8.538;2023-05-16T13:26:36;14.60;99.90
3542;DHT22;1785;47.388;8.538;2023-05-16T13:29:03;14.60;99.90
3542;DHT22;1785;47.388;8.538;2023-05-16T13:31:29;14.70;99.90
3542;DHT22;1785;47.388;8.538;2023-05-16T13:33:55;14.80;99.90
3542;DHT22;1785;47.388;8.538;2023-05-16T13:36:21;14.90;99.90
3542;DHT22;1785;47.388;8.538;2023-05-16T13:38:47;14.90;99.90
3542;DHT22;1785;47.388;8.538;2023-05-16T13:41:14;14.90;99.90
3542;DHT22;1785;47.388;8.538;2023-05-16T13:43:40;15.10;99.90
3542;DHT22;1785;47.388;8.538;2023-05-16T13:46:07;15.10;99.90
3542;DHT22;1785;47.388;8.538;2023-05-16T13:48:33;15.10;99.90
3542;DHT22;1785;47.388;8.538;2023-05-16T13:50:59;15.20;99.90
3542;DHT22;1785;47.388;8.538;2023-05-16T13:53:26;15.00;99.90
3542;DHT22;1785;47.388;8.538;2023-05-16T13:55:52;15.10;99.90
3542;DHT22;1785;47.388;8.538;2023-05-16T13:58:18;15.00;99.90
3542;DHT22;1785;47.388;8.538;2023-05-16T14:00:45;14.70;99.90
3542;DHT22;1785;47.388;8.538;2023-05-16T14:03:12;14.10;99.90
3542;DHT22;1785;47.388;8.538;2023-05-16T14:05:39;13.80;99.90
3542;DHT22;1785;47.388;8.538;2023-05-16T14:08:05;14.10;99.90
3542;DHT22;1785;47.388;8.538;2023-05-16T14:10:33;14.00;99.90
3542;DHT22;1785;47.388;8.538;2023-05-16T14:12:59;14.00;99.90
3542;DHT22;1785;47.388;8.538;2023-05-16T14:15:25;13.90;99.90
3542;DHT22;1785;47.388;8.538;2023-05-16T14:17:51;13.80;99.90
3542;DHT22;1785;47.388;8.538;2023-05-16T14:20:18;13.80;99.90
3542;DHT22;1785;47.388;8.538;2023-05-16T14:22:44;13.90;99.90
3542;DHT22;1785;47.388;8.538;2023-05-16T14:25:10;13.80;99.90
3542;DHT22;1785;47.388;8.538;2023-05-16T14:27:37;13.70;99.90
3542;DHT22;1785;47.388;8.538;2023-05-16T14:30:03;13.60;99.90
3542;DHT22;1785;47.388;8.538;2023-05-16T14:32:30;13.60;99.90
3542;DHT22;1785;47.388;8.538;2023-05-16T14:34:56;13.80;99.90
3542;DHT22;1785;47.388;8.538;2023-05-16T14:37:23;13.90;99.90
3542;DHT22;1785;47.388;8.538;2023-05-16T14:39:49;13.70;99.90
3542;DHT22;1785;47.388;8.538;2023-05-16T14:42:17;13.90;99.90
3542;DHT22;1785;47.388;8.538;2023-05-16T14:44:44;14.30;99.90
3542;DHT22;1785;47.388;8.538;2023-05-16T14:47:11;14.50;99.90
3542;DHT22;1785;47.388;8.538;2023-05-16T14:49:39;14.40;99.90
3542;DHT22;1785;47.388;8.538;2023-05-16T14:52:05;14.40;99.90
3542;DHT22;1785;47.388;8.538;2023-05-16T14:54:32;14.30;99.90
3542;DHT22;1785;47.388;8.538;2023-05-16T14:56:58;14.40;99.90
3542;DHT22;1785;47.388;8.538;2023-05-16T14:59:25;14.30;99.90
3542;DHT22;1785;47.388;8.538;2023-05-16T15:01:52;14.40;99.90
3542;DHT22;1785;47.388;8.538;2023-05-16T15:04:19;14.40;99.90
3542;DHT22;1785;47.388;8.538;2023-05-16T15:06:45;14.40;99.90
3542;DHT22;1785;47.388;8.538;2023-05-16T15:09:12;14.10;99.90
3542;DHT22;1785;47.388;8.538;2023-05-16T15:11:38;14.00;99.90
3542;DHT22;1785;47.388;8.538;2023-05-16T15:14:05;14.00;99.90
3542;DHT22;1785;47.388;8.538;2023-05-16T15:16:32;14.10;99.90
3542;DHT22;1785;47.388;8.538;2023-05-16T15:19:00;13.90;99.90
3542;DHT22;1785;47.388;8.538;2023-05-16T15:21:26;13.70;99.90
3542;DHT22;1785;47.388;8.538;2023-05-16T15:23:52;13.70;99.90
3542;DHT22;1785;47.388;8.538;2023-05-16T15:26:19;13.80;99.90
3542;DHT22;1785;47.388;8.538;2023-05-16T15:28:46;13.90;99.90
3542;DHT22;1785;47.388;8.538;2023-05-16T15:31:13;13.80;99.90
3542;DHT22;1785;47.388;8.538;2023-05-16T15:33:39;13.80;99.90
3542;DHT22;1785;47.388;8.538;2023-05-16T15:36:06;14.00;99.90
3542;DHT22;1785;47.388;8.538;2023-05-16T15:38:32;14.10;99.90
3542;DHT22;1785;47.388;8.538;2023-05-16T15:40:59;14.10;99.90
3542;DHT22;1785;47.388;8.538;2023-05-16T15:43:25;13.90;99.90
3542;DHT22;1785;47.388;8.538;2023-05-16T15:45:51;13.90;99.90
3542;DHT22;1785;47.388;8.538;2023-05-16T15:48:17;14.00;99.90
3542;DHT22;1785;47.388;8.538;2023-05-16T15:50:43;13.90;99.90
3542;DHT22;1785;47.388;8.538;2023-05-16T15:53:10;13.60;99.90
3542;DHT22;1785;47.388;8.538;2023-05-16T15:55:36;13.80;99.90
3542;DHT22;1785;47.388;8.538;2023-05-16T15:58:03;13.80;99.90
3542;DHT22;1785;47.388;8.538;2023-05-16T16:00:30;13.90;99.90
3542;DHT22;1785;47.388;8.538;2023-05-16T16:02:56;13.90;99.90